Time;durP1;ratioP1;P1;durP2;ratioP2;P2;SDS_P1;SDS_P2;PMS_P1;PMS_P2;Temp;Humidity;BMP_temperature;BMP_pressure;BME280_temperature;BME280_humidity;BME280_pressure;Samples;Min_cycle;Max_cycle;Signal;HPM_P1;HPM_P2
2023/12/27 00:00:53;;;;;;;5.38;1.42;;;17.70;69.40;;;;;;5107560;27;47599;-53
2023/12/27 00:03:20;;;;;;;4.75;1.98;;;17.70;69.20;;;;;;5107284;27;45236;-53
2023/12/27 00:05:48;;;;;;;2.72;1.42;;;17.70;69.20;;;;;;5108590;27;45281;-53
2023/12/27 00:08:15;;;;;;;4.05;2.05;;;17.60;69.10;;;;;;5106438;27;45308;-53
2023/12/27 00:10:42;;;;;;;6.00;1.98;;;17.60;69.10;;;;;;5108253;27;45330;-53
2023/12/27 00:13:08;;;;;;;4.75;1.33;;;17.60;68.90;;;;;;5106165;27;45301;-53
2023/12/27 00:15:35;;;;;;;3.25;1.40;;;17.60;68.80;;;;;;5106267;27;45156;-53
2023/12/27 00:18:02;;;;;;;2.50;1.30;;;17.70;68.60;;;;;;5109338;27;45248;-53
2023/12/27 00:20:29;;;;;;;3.17;1.60;;;17.70;68.80;;;;;;5112205;27;45443;-53
2023/12/27 00:22:57;;;;;;;4.30;1.50;;;17.70;68.70;;;;;;5111163;27;45235;-53
2023/12/27 00:25:24;;;;;;;4.07;1.63;;;17.70;68.60;;;;;;5111249;27;45180;-53
2023/12/27 00:27:51;;;;;;;5.60;1.92;;;17.70;69.80;;;;;;5111405;27;45148;-53
2023/12/27 00:30:18;;;;;;;4.45;1.80;;;17.70;68.60;;;;;;5110183;27;45208;-53
2023/12/27 00:32:45;;;;;;;3.83;1.73;;;17.70;68.70;;;;;;5111841;27;45161;-53
2023/12/27 00:35:11;;;;;;;5.78;2.03;;;17.70;68.30;;;;;;5112252;27;45283;-53
2023/12/27 00:37:38;;;;;;;4.88;1.83;;;17.70;68.40;;;;;;5109761;27;45213;-53
2023/12/27 00:40:08;;;;;;;4.13;2.05;;;17.70;68.50;;;;;;5110547;27;47497;-53
2023/12/27 00:42:34;;;;;;;3.63;1.73;;;17.70;68.50;;;;;;5110907;27;45179;-53
2023/12/27 00:45:01;;;;;;;4.03;1.55;;;17.70;68.50;;;;;;5111913;27;45144;-53
2023/12/27 00:47:28;;;;;;;4.38;1.85;;;17.70;68.50;;;;;;5110927;27;45427;-53
2023/12/27 00:49:55;;;;;;;4.95;1.63;;;17.60;68.40;;;;;;5109574;27;45973;-53
2023/12/27 00:52:22;;;;;;;5.20;1.90;;;17.60;68.30;;;;;;5110868;27;45306;-53
2023/12/27 00:54:49;;;;;;;5.68;1.75;;;17.60;68.30;;;;;;5111291;27;45203;-53
2023/12/27 00:57:17;;;;;;;4.68;1.80;;;17.60;68.20;;;;;;5111804;27;45603;-53
2023/12/27 00:59:45;;;;;;;3.40;1.60;;;17.60;68.40;;;;;;5109421;27;46028;-53
2023/12/27 01:02:11;;;;;;;2.83;1.33;;;17.60;68.40;;;;;;5109511;27;46796;-53
2023/12/27 01:04:38;;;;;;;4.30;1.38;;;17.60;68.40;;;;;;5109332;27;45271;-53
2023/12/27 01:07:05;;;;;;;3.92;1.50;;;17.60;68.30;;;;;;5109002;27;45075;-53
2023/12/27 01:09:32;;;;;;;4.28;1.65;;;17.60;68.20;;;;;;5108729;27;46318;-53
2023/12/27 01:11:58;;;;;;;4.15;1.80;;;17.60;68.10;;;;;;5107926;27;45515;-53
2023/12/27 01:14:26;;;;;;;4.88;1.70;;;17.60;68.00;;;;;;5106059;27;45673;-53
2023/12/27 01:16:53;;;;;;;4.07;1.65;;;17.60;68.40;;;;;;5111310;27;45125;-53
2023/12/27 01:19:20;;;;;;;4.95;1.88;;;17.60;67.80;;;;;;5109635;27;45448;-53
2023/12/27 01:21:47;;;;;;;5.18;1.73;;;17.60;67.80;;;;;;5108694;27;45098;-53
2023/12/27 01:24:14;;;;;;;4.57;1.77;;;17.70;67.90;;;;;;5107714;27;45222;-53
2023/12/27 01:26:40;;;;;;;3.30;1.73;;;17.70;67.80;;;;;;5108332;27;45233;-53
2023/12/27 01:29:07;;;;;;;3.97;1.67;;;17.70;67.70;;;;;;5108554;27;48075;-53
2023/12/27 01:31:35;;;;;;;4.65;1.75;;;17.70;67.90;;;;;;5111315;27;45598;-53
2023/12/27 01:34:02;;;;;;;2.90;1.35;;;17.70;67.60;;;;;;5108518;27;45195;-53
2023/12/27 01:36:29;;;;;;;6.35;1.65;;;17.60;67.10;;;;;;5104636;27;45405;-53
2023/12/27 01:38:55;;;;;;;4.53;1.60;;;17.60;65.90;;;;;;5108252;27;47536;-53
2023/12/27 01:41:22;;;;;;;3.00;1.23;;;17.60;65.60;;;;;;5108395;27;45185;-53
2023/12/27 01:43:49;;;;;;;4.00;1.60;;;17.60;65.00;;;;;;5110029;27;45209;-53
2023/12/27 01:46:16;;;;;;;3.33;1.40;;;17.60;64.50;;;;;;5109321;27;45122;-53
2023/12/27 01:48:44;;;;;;;5.00;1.48;;;17.60;64.00;;;;;;5109813;27;46273;-53
2023/12/27 01:51:13;;;;;;;2.95;1.40;;;17.60;64.50;;;;;;5108630;27;45442;-53
2023/12/27 01:53:41;;;;;;;5.55;1.70;;;17.60;63.30;;;;;;5108730;27;45199;-53
2023/12/27 01:56:09;;;;;;;3.53;1.63;;;17.60;63.10;;;;;;5109768;27;45175;-53
2023/12/27 01:58:36;;;;;;;3.35;1.52;;;17.50;62.70;;;;;;5108856;27;45144;-53
2023/12/27 02:01:03;;;;;;;3.03;1.40;;;17.50;62.30;;;;;;5109005;27;45179;-53
2023/12/27 02:03:30;;;;;;;5.60;1.85;;;17.50;62.30;;;;;;5110566;27;45249;-53
2023/12/27 02:06:00;;;;;;;4.63;1.50;;;17.50;62.00;;;;;;5109841;27;45183;-53
2023/12/27 02:08:28;;;;;;;4.28;1.70;;;17.50;61.20;;;;;;5107179;27;46319;-53
2023/12/27 02:10:55;;;;;;;4.80;1.52;;;17.50;61.50;;;;;;5108917;27;45289;-53
2023/12/27 02:13:22;;;;;;;7.25;1.70;;;17.50;61.20;;;;;;5108822;27;45220;-53
2023/12/27 02:15:48;;;;;;;3.90;1.60;;;17.50;60.90;;;;;;5110328;27;45173;-52
2023/12/27 02:18:15;;;;;;;3.05;1.30;;;17.50;60.10;;;;;;5109066;27;45258;-53
2023/12/27 02:20:43;;;;;;;5.25;1.52;;;17.50;60.20;;;;;;5108753;27;45189;-53
2023/12/27 02:23:13;;;;;;;4.80;1.35;;;17.40;60.00;;;;;;5109701;27;45410;-53
2023/12/27 02:25:43;;;;;;;7.97;1.80;;;17.50;60.10;;;;;;5107258;27;45302;-53
2023/12/27 02:28:10;;;;;;;5.78;1.60;;;17.50;60.00;;;;;;5110400;27;45178;-53
2023/12/27 02:30:38;;;;;;;4.80;1.50;;;17.50;60.50;;;;;;5108082;27;46108;-53
2023/12/27 02:33:05;;;;;;;3.72;1.38;;;17.50;60.00;;;;;;5108891;27;45318;-52
2023/12/27 02:35:31;;;;;;;3.97;1.65;;;17.50;59.90;;;;;;5108370;27;45094;-53
2023/12/27 02:38:00;;;;;;;4.85;1.63;;;17.50;60.30;;;;;;5106264;27;46234;-53
2023/12/27 02:40:26;;;;;;;3.10;1.40;;;17.50;59.80;;;;;;5105555;27;45171;-53
2023/12/27 02:42:54;;;;;;;7.60;1.60;;;17.50;59.80;;;;;;5109260;27;45154;-52
2023/12/27 02:45:21;;;;;;;4.35;1.60;;;17.50;59.60;;;;;;5105793;27;45157;-52
2023/12/27 02:47:48;;;;;;;5.93;1.60;;;17.50;59.50;;;;;;5107352;27;45199;-52
2023/12/27 02:50:15;;;;;;;3.35;1.40;;;17.50;59.50;;;;;;5106224;27;45207;-52
2023/12/27 02:52:41;;;;;;;4.70;1.17;;;17.50;59.20;;;;;;5108922;27;45259;-53
2023/12/27 02:55:09;;;;;;;6.78;1.70;;;17.50;59.00;;;;;;5106119;27;45110;-53
2023/12/27 02:57:35;;;;;;;3.78;1.60;;;17.50;58.90;;;;;;5109220;27;47358;-53
2023/12/27 03:00:05;;;;;;;3.50;1.42;;;17.50;59.00;;;;;;5105557;27;45217;-53
2023/12/27 03:02:32;;;;;;;2.75;1.30;;;17.50;58.50;;;;;;5102838;27;45227;-53
2023/12/27 03:04:59;;;;;;;4.47;1.38;;;17.40;58.20;;;;;;5103941;27;45283;-53
2023/12/27 03:07:25;;;;;;;3.22;1.20;;;17.40;57.60;;;;;;5107247;27;45991;-53
2023/12/27 03:09:52;;;;;;;3.92;1.58;;;17.40;57.30;;;;;;5108810;27;45295;-53
2023/12/27 03:12:19;;;;;;;3.97;1.25;;;17.40;57.80;;;;;;5110048;27;45325;-53
2023/12/27 03:14:47;;;;;;;2.85;1.30;;;17.40;57.00;;;;;;5110682;27;45155;-53
2023/12/27 03:17:15;;;;;;;4.18;1.60;;;17.40;57.00;;;;;;5108966;27;46678;-52
2023/12/27 03:19:41;;;;;;;4.20;1.50;;;17.40;56.80;;;;;;5109648;27;45112;-53
2023/12/27 03:22:08;;;;;;;4.13;1.50;;;17.40;56.90;;;;;;5109107;27;45150;-53
2023/12/27 03:24:35;;;;;;;3.03;1.40;;;17.40;56.20;;;;;;5109871;27;45519;-53
2023/12/27 03:27:02;;;;;;;4.60;1.45;;;17.40;56.30;;;;;;5108674;27;46535;-53
2023/12/27 03:29:28;;;;;;;4.20;1.60;;;17.40;56.60;;;;;;5108302;27;45153;-53
2023/12/27 03:31:55;;;;;;;3.30;1.55;;;17.40;57.00;;;;;;5109077;27;45218;-53
2023/12/27 03:34:23;;;;;;;3.38;1.42;;;17.40;56.60;;;;;;5109747;27;45207;-53
2023/12/27 03:36:50;;;;;;;2.50;1.10;;;17.40;56.30;;;;;;5107713;27;47443;-53
2023/12/27 03:39:17;;;;;;;5.55;1.70;;;17.40;56.60;;;;;;5108592;27;45164;-53
2023/12/27 03:41:43;;;;;;;4.82;1.90;;;17.40;55.90;;;;;;5106627;27;45224;-53
2023/12/27 03:44:10;;;;;;;4.07;1.70;;;17.40;56.10;;;;;;5108374;27;45230;-53
2023/12/27 03:46:37;;;;;;;3.33;1.02;;;17.40;56.30;;;;;;5109172;27;48139;-53
2023/12/27 03:49:04;;;;;;;5.45;1.95;;;17.40;56.30;;;;;;5106111;27;45038;-53
2023/12/27 03:51:33;;;;;;;4.80;1.98;;;17.40;56.30;;;;;;5106777;27;45247;-53
2023/12/27 03:54:00;;;;;;;4.43;1.63;;;17.40;56.40;;;;;;5108922;27;45163;-53
2023/12/27 03:56:26;;;;;;;4.32;1.23;;;17.40;56.30;;;;;;5108046;27;45318;-53
2023/12/27 03:58:53;;;;;;;3.53;1.30;;;17.40;55.70;;;;;;5108890;27;45339;-53
2023/12/27 04:01:21;;;;;;;5.20;1.77;;;17.40;56.20;;;;;;5108417;27;45314;-53
2023/12/27 04:03:48;;;;;;;3.10;1.30;;;17.40;55.90;;;;;;5109502;27;45393;-53
2023/12/27 04:06:18;;;;;;;4.38;1.48;;;17.40;56.10;;;;;;5107507;27;47336;-53
2023/12/27 04:08:48;;;;;;;4.63;1.50;;;17.40;55.60;;;;;;5109260;27;45327;-52
2023/12/27 04:11:15;;;;;;;3.13;1.30;;;17.40;60.00;;;;;;5108924;27;45089;-53
2023/12/27 04:13:41;;;;;;;4.10;1.33;;;17.40;58.70;;;;;;5109253;27;45454;-53
2023/12/27 04:16:08;;;;;;;5.53;1.50;;;17.40;57.90;;;;;;5109890;27;46982;-53
2023/12/27 04:18:35;;;;;;;4.28;1.60;;;17.40;57.50;;;;;;5109665;27;45221;-53
2023/12/27 04:21:02;;;;;;;3.88;1.30;;;17.40;57.20;;;;;;5108168;27;45159;-53
2023/12/27 04:23:28;;;;;;;4.18;1.35;;;17.40;56.90;;;;;;5109110;27;45009;-53
2023/12/27 04:25:57;;;;;;;4.07;1.50;;;17.40;56.40;;;;;;5107074;27;46326;-53
2023/12/27 04:28:24;;;;;;;6.07;1.80;;;17.30;56.30;;;;;;5108688;27;45157;-53
2023/12/27 04:30:50;;;;;;;2.30;1.17;;;17.30;56.30;;;;;;5108129;27;45197;-53
2023/12/27 04:33:17;;;;;;;3.20;1.40;;;17.40;56.20;;;;;;5109712;27;45352;-53
2023/12/27 04:35:44;;;;;;;6.45;1.65;;;17.30;56.40;;;;;;5106281;27;45077;-53
2023/12/27 04:38:13;;;;;;;3.72;1.45;;;17.30;56.60;;;;;;5105615;27;45085;-53
2023/12/27 04:40:43;;;;;;;3.03;1.50;;;17.30;56.20;;;;;;5108418;27;45258;-53
2023/12/27 04:43:11;;;;;;;6.35;1.60;;;17.30;56.20;;;;;;5109227;27;45169;-53
2023/12/27 04:45:38;;;;;;;3.55;1.50;;;17.40;56.50;;;;;;5107009;27;47415;-53
2023/12/27 04:48:05;;;;;;;4.20;1.60;;;17.40;56.00;;;;;;5108002;27;44892;-53
2023/12/27 04:50:32;;;;;;;2.83;1.30;;;17.40;56.00;;;;;;5108052;27;45481;-53
2023/12/27 04:52:58;;;;;;;3.45;1.40;;;17.40;55.80;;;;;;5107003;27;45271;-53
2023/12/27 04:55:25;;;;;;;4.32;1.17;;;17.40;56.10;;;;;;5107127;27;47105;-53
2023/12/27 04:57:52;;;;;;;4.60;1.48;;;17.40;56.10;;;;;;5108061;27;44642;-52
2023/12/27 05:00:22;;;;;;;4.65;1.48;;;17.40;56.10;;;;;;5107933;27;45206;-53
2023/12/27 05:02:49;;;;;;;3.63;1.23;;;17.40;56.10;;;;;;5105379;27;45559;-53
2023/12/27 05:05:16;;;;;;;4.32;1.63;;;17.40;56.20;;;;;;5111989;27;45160;-53
2023/12/27 05:07:43;;;;;;;3.67;1.30;;;17.40;56.30;;;;;;5110326;27;45271;-53
2023/12/27 05:10:10;;;;;;;5.35;1.88;;;17.40;56.50;;;;;;5110314;27;45298;-52
2023/12/27 05:12:36;;;;;;;2.97;1.40;;;17.40;56.30;;;;;;5112108;27;45323;-53
2023/12/27 05:15:03;;;;;;;1.77;0.93;;;17.30;55.90;;;;;;5106938;27;45224;-53
2023/12/27 05:17:31;;;;;;;4.55;1.50;;;17.40;56.00;;;;;;5112267;27;45603;-53
2023/12/27 05:19:58;;;;;;;2.92;1.30;;;17.30;55.70;;;;;;5110569;27;45278;-52
2023/12/27 05:22:27;;;;;;;2.80;1.13;;;17.30;55.90;;;;;;5111684;27;44677;-53
2023/12/27 05:24:54;;;;;;;1.75;1.20;;;17.30;55.90;;;;;;5110478;27;45462;-52
2023/12/27 05:27:21;;;;;;;3.92;1.50;;;17.30;56.00;;;;;;5110836;27;45114;-53
2023/12/27 05:29:47;;;;;;;4.22;1.30;;;17.30;55.90;;;;;;5109950;27;45129;-52
2023/12/27 05:32:14;;;;;;;3.97;1.40;;;17.30;55.70;;;;;;5110492;27;45240;-53
2023/12/27 05:34:42;;;;;;;2.47;1.40;;;17.30;56.20;;;;;;5111936;27;47015;-53
2023/12/27 05:37:09;;;;;;;2.83;1.20;;;17.30;56.50;;;;;;5109562;27;45314;-53
2023/12/27 05:39:36;;;;;;;3.72;1.40;;;17.40;57.20;;;;;;5108770;27;45263;-53
2023/12/27 05:42:03;;;;;;;3.00;1.45;;;17.30;57.70;;;;;;5111009;27;45155;-53
2023/12/27 05:44:29;;;;;;;2.35;1.20;;;17.40;58.10;;;;;;5109665;27;45221;-52
2023/12/27 05:46:57;;;;;;;2.65;1.10;;;17.40;58.30;;;;;;5111317;27;44647;-52
2023/12/27 05:49:23;;;;;;;3.17;1.73;;;17.30;58.80;;;;;;5110404;27;45264;-52
2023/12/27 05:51:52;;;;;;;2.58;1.13;;;17.40;59.10;;;;;;5110877;27;45302;-52
2023/12/27 05:54:19;;;;;;;3.90;1.25;;;17.40;59.30;;;;;;5110915;27;46967;-52
2023/12/27 05:56:45;;;;;;;3.78;1.45;;;17.40;59.60;;;;;;5105778;27;45230;-52
2023/12/27 05:59:12;;;;;;;3.80;1.30;;;17.40;59.70;;;;;;5107851;27;45281;-52
2023/12/27 06:01:45;;;;;;;6.28;1.70;;;17.40;59.90;;;;;;5108079;27;45471;-53
2023/12/27 06:04:14;;;;;;;3.20;1.40;;;17.40;59.90;;;;;;5110321;27;45218;-52
2023/12/27 06:06:41;;;;;;;3.95;1.60;;;17.40;60.00;;;;;;5111740;27;45195;-52
2023/12/27 06:09:10;;;;;;;4.80;1.35;;;17.40;60.10;;;;;;5109332;27;45117;-53
2023/12/27 06:11:37;;;;;;;3.53;0.95;;;17.40;60.20;;;;;;5109881;27;44844;-53
2023/12/27 06:14:04;;;;;;;3.03;1.17;;;17.40;60.40;;;;;;5109595;27;47484;-53
2023/12/27 06:16:31;;;;;;;2.50;1.30;;;17.40;60.40;;;;;;5109557;27;45141;-53
2023/12/27 06:19:01;;;;;;;2.47;1.20;;;17.40;60.50;;;;;;5110686;27;45109;-53
2023/12/27 06:21:27;;;;;;;2.67;1.20;;;17.40;59.90;;;;;;5108955;27;45489;-53
2023/12/27 06:23:55;;;;;;;4.18;1.42;;;17.40;60.80;;;;;;5111252;27;46541;-53
2023/12/27 06:26:23;;;;;;;2.58;1.13;;;17.40;61.00;;;;;;5109997;27;45139;-53
2023/12/27 06:28:49;;;;;;;3.95;1.25;;;17.40;62.20;;;;;;5107807;27;45204;-53
2023/12/27 06:31:16;;;;;;;5.05;1.20;;;17.40;61.40;;;;;;5110307;27;45168;-53
2023/12/27 06:33:43;;;;;;;2.65;1.20;;;17.40;61.30;;;;;;5109399;27;47346;-53
2023/12/27 06:36:10;;;;;;;2.95;1.50;;;17.40;61.30;;;;;;5110393;27;45410;-53
2023/12/27 06:38:36;;;;;;;3.85;1.13;;;17.40;61.50;;;;;;5109699;27;44630;-53
2023/12/27 06:41:04;;;;;;;2.70;1.20;;;17.40;61.60;;;;;;5108893;27;45177;-53
2023/12/27 06:43:32;;;;;;;4.65;1.23;;;17.40;61.60;;;;;;5110494;27;47360;-53
2023/12/27 06:45:59;;;;;;;3.10;1.05;;;17.40;61.80;;;;;;5109564;27;45305;-53
2023/12/27 06:48:25;;;;;;;2.30;1.17;;;17.40;61.80;;;;;;5111678;27;45337;-52
2023/12/27 06:50:52;;;;;;;1.90;1.20;;;17.50;61.90;;;;;;5109461;27;45253;-53
2023/12/27 06:53:19;;;;;;;2.67;1.10;;;17.50;61.80;;;;;;5110395;27;45348;-53
2023/12/27 06:55:46;;;;;;;2.80;1.10;;;17.50;62.00;;;;;;5110926;27;45278;-53
2023/12/27 06:58:12;;;;;;;2.83;1.17;;;17.50;62.10;;;;;;5110467;27;45487;-53
2023/12/27 07:00:41;;;;;;;3.20;1.15;;;17.50;62.20;;;;;;5104580;27;45175;-53
2023/12/27 07:03:08;;;;;;;2.30;1.23;;;17.50;62.10;;;;;;5107604;27;47693;-53
2023/12/27 07:05:34;;;;;;;1.52;0.93;;;17.50;62.20;;;;;;5108085;27;45175;-53
2023/12/27 07:08:01;;;;;;;2.63;1.20;;;17.50;62.20;;;;;;5111182;27;45252;-53
2023/12/27 07:10:27;;;;;;;2.25;1.23;;;17.50;62.20;;;;;;5108595;27;45285;-53
2023/12/27 07:12:54;;;;;;;3.38;1.05;;;17.50;62.20;;;;;;5107028;27;45304;-52
2023/12/27 07:15:20;;;;;;;4.78;1.20;;;17.50;62.30;;;;;;5109456;27;45235;-53
2023/12/27 07:17:48;;;;;;;2.10;0.93;;;17.50;62.40;;;;;;5109551;27;45148;-53
2023/12/27 07:20:15;;;;;;;3.58;1.00;;;17.50;62.50;;;;;;5109706;27;45236;-53
2023/12/27 07:22:42;;;;;;;3.97;1.27;;;17.50;62.60;;;;;;5109935;27;47986;-53
2023/12/27 07:25:10;;;;;;;1.80;1.08;;;17.50;62.60;;;;;;5110322;27;45354;-53
2023/12/27 07:27:37;;;;;;;2.55;1.02;;;17.50;62.70;;;;;;5109652;27;45090;-53
2023/12/27 07:30:06;;;;;;;2.33;1.02;;;17.50;62.90;;;;;;5106830;27;45383;-53
2023/12/27 07:32:33;;;;;;;1.95;1.20;;;17.50;62.80;;;;;;5107083;27;47259;-53
2023/12/27 07:35:01;;;;;;;3.78;1.40;;;17.50;62.90;;;;;;5107929;27;45194;-52
2023/12/27 07:37:28;;;;;;;2.33;0.90;;;17.50;62.90;;;;;;5108317;27;45270;-52
2023/12/27 07:39:55;;;;;;;1.45;0.95;;;17.50;63.10;;;;;;5107587;27;45226;-52
2023/12/27 07:42:22;;;;;;;2.53;1.17;;;17.40;63.10;;;;;;5106668;27;45443;-52
2023/12/27 07:44:49;;;;;;;3.20;1.35;;;17.40;63.50;;;;;;5108148;27;45121;-53
2023/12/27 07:47:16;;;;;;;2.13;1.02;;;17.40;63.40;;;;;;5109573;27;45349;-53
2023/12/27 07:49:43;;;;;;;2.85;1.25;;;17.40;63.50;;;;;;5107590;27;45207;-52
2023/12/27 07:52:11;;;;;;;2.33;0.80;;;17.40;63.60;;;;;;5108481;27;47969;-53
2023/12/27 07:54:38;;;;;;;2.22;1.15;;;17.50;68.50;;;;;;5109801;27;45349;-53
2023/12/27 07:57:05;;;;;;;2.55;1.10;;;17.60;66.60;;;;;;5109906;27;45139;-53
2023/12/27 07:59:32;;;;;;;2.22;0.77;;;17.60;65.70;;;;;;5107952;27;45126;-53
2023/12/27 08:01:59;;;;;;;7.55;1.33;;;17.50;65.40;;;;;;5107227;27;46319;-53
2023/12/27 08:04:26;;;;;;;2.35;0.90;;;17.50;65.50;;;;;;5109033;27;45466;-53
2023/12/27 08:06:52;;;;;;;1.30;0.70;;;17.50;65.40;;;;;;5108702;27;45278;-53
2023/12/27 08:09:22;;;;;;;0.93;0.70;;;17.50;65.30;;;;;;5108152;27;45252;-53
2023/12/27 08:11:49;;;;;;;3.63;1.10;;;17.50;65.20;;;;;;5107076;27;47029;-53
2023/12/27 08:14:16;;;;;;;2.88;0.90;;;17.50;65.20;;;;;;5104953;27;46443;-53
2023/12/27 08:16:43;;;;;;;2.40;1.02;;;17.50;65.20;;;;;;5108829;27;45315;-53
2023/12/27 08:19:10;;;;;;;1.45;0.90;;;17.50;65.20;;;;;;5105987;27;45170;-53
2023/12/27 08:21:37;;;;;;;3.03;1.13;;;17.50;65.10;;;;;;5106739;27;48752;-53
2023/12/27 08:24:04;;;;;;;2.28;0.90;;;17.50;65.10;;;;;;5108395;27;45129;-53
2023/12/27 08:26:32;;;;;;;3.67;1.30;;;17.50;65.00;;;;;;5108903;27;45173;-53
2023/12/27 08:28:59;;;;;;;3.00;1.00;;;17.50;65.20;;;;;;5108351;27;45315;-53
2023/12/27 08:31:25;;;;;;;2.65;1.20;;;17.50;65.10;;;;;;5106404;27;46393;-53
2023/12/27 08:33:53;;;;;;;2.47;1.10;;;17.50;65.20;;;;;;5109154;27;45523;-52
2023/12/27 08:36:20;;;;;;;2.25;1.10;;;17.50;65.40;;;;;;5105779;27;45169;-53
2023/12/27 08:38:47;;;;;;;1.83;1.02;;;17.50;65.40;;;;;;5108542;27;45232;-53
2023/12/27 08:41:15;;;;;;;2.20;1.10;;;17.50;65.50;;;;;;5108538;27;47511;-53
2023/12/27 08:43:43;;;;;;;2.50;0.93;;;17.50;65.60;;;;;;5107915;27;45213;-53
2023/12/27 08:46:10;;;;;;;1.83;0.88;;;17.50;65.70;;;;;;5110514;27;45229;-52
2023/12/27 08:48:37;;;;;;;2.40;1.10;;;17.50;65.80;;;;;;5108632;27;45488;-52
2023/12/27 08:51:04;;;;;;;2.42;1.02;;;17.40;65.80;;;;;;5109287;27;46504;-53
2023/12/27 08:53:31;;;;;;;2.47;1.20;;;17.40;65.80;;;;;;5111724;27;45115;-52
2023/12/27 08:55:58;;;;;;;2.05;1.00;;;17.40;65.90;;;;;;5112894;27;44646;-52
2023/12/27 08:58:25;;;;;;;1.42;0.60;;;17.40;65.90;;;;;;5108956;27;45196;-53
2023/12/27 09:00:54;;;;;;;24.27;3.22;;;17.40;65.90;;;;;;5104987;27;46963;-52
2023/12/27 09:03:21;;;;;;;14.65;1.73;;;17.50;68.00;;;;;;5107031;27;45192;-53
2023/12/27 09:05:48;;;;;;;32.25;2.72;;;17.60;69.10;;;;;;5109927;27;45213;-52
2023/12/27 09:08:15;;;;;;;9.00;1.52;;;17.60;68.10;;;;;;5101685;27;45317;-52
2023/12/27 09:10:42;;;;;;;7.68;1.10;;;17.60;67.70;;;;;;5096307;27;47027;-53
2023/12/27 09:13:09;;;;;;;3.97;1.00;;;17.50;67.80;;;;;;5096224;27;45410;-53
2023/12/27 09:15:36;;;;;;;3.80;1.08;;;17.50;67.90;;;;;;5097687;27;45197;-53
2023/12/27 09:18:04;;;;;;;6.53;1.75;;;17.50;68.10;;;;;;5101634;27;47314;-53
2023/12/27 09:20:31;;;;;;;4.57;1.08;;;17.50;69.10;;;;;;5109584;27;45255;-53
2023/12/27 09:22:58;;;;;;;3.97;1.25;;;17.60;69.80;;;;;;5111284;27;45192;-53
2023/12/27 09:25:25;;;;;;;4.28;0.90;;;17.60;69.60;;;;;;5112062;27;45219;-53
2023/12/27 09:27:51;;;;;;;5.78;0.70;;;17.70;69.70;;;;;;5111736;27;45318;-53
2023/12/27 09:30:18;;;;;;;2.67;1.13;;;17.70;69.60;;;;;;5110874;27;45252;-53
2023/12/27 09:32:45;;;;;;;3.88;0.80;;;17.80;69.80;;;;;;5110193;27;45145;-53
2023/12/27 09:35:13;;;;;;;3.53;0.90;;;17.80;69.60;;;;;;5111607;27;45147;-53
2023/12/27 09:37:40;;;;;;;1.65;0.80;;;17.80;69.60;;;;;;5112236;27;45300;-53
2023/12/27 09:40:08;;;;;;;1.70;0.80;;;17.80;69.40;;;;;;5111570;27;47301;-53
2023/12/27 09:42:37;;;;;;;2.88;0.93;;;17.80;69.60;;;;;;5111155;27;44856;-52
2023/12/27 09:45:05;;;;;;;1.33;0.68;;;17.80;69.70;;;;;;5111934;27;44664;-53
2023/12/27 09:47:34;;;;;;;3.88;1.15;;;17.80;69.80;;;;;;5112209;27;45380;-53
2023/12/27 09:50:03;;;;;;;2.20;0.70;;;17.80;69.70;;;;;;5109962;27;45187;-53
2023/12/27 09:52:33;;;;;;;3.03;1.00;;;17.80;69.60;;;;;;5110842;27;45274;-53
2023/12/27 09:55:01;;;;;;;2.08;1.02;;;17.90;69.80;;;;;;5111581;27;45271;-53
2023/12/27 09:57:30;;;;;;;2.42;1.00;;;17.90;69.70;;;;;;5112226;27;45136;-53
2023/12/27 09:59:57;;;;;;;2.90;0.80;;;17.90;69.80;;;;;;5110275;27;48024;-53
2023/12/27 10:02:28;;;;;;;2.03;0.80;;;17.90;69.80;;;;;;5110908;27;45298;-53
2023/12/27 10:05:06;;;;;;;2.17;0.98;;;17.90;69.90;;;;;;5111589;27;44696;-53
2023/12/27 10:07:39;;;;;;;2.13;0.95;;;17.90;69.90;;;;;;5111312;27;45179;-53
2023/12/27 10:10:06;;;;;;;1.67;0.82;;;17.90;69.90;;;;;;5110460;27;45245;-53
2023/12/27 10:12:33;;;;;;;3.83;0.75;;;17.90;69.90;;;;;;5110442;27;45272;-53
2023/12/27 10:15:00;;;;;;;1.95;0.70;;;17.90;70.90;;;;;;5112200;27;45101;-53
2023/12/27 10:17:27;;;;;;;1.25;0.60;;;17.90;69.80;;;;;;5111790;27;45450;-53
2023/12/27 10:19:54;;;;;;;3.17;0.90;;;17.90;70.00;;;;;;5110868;27;47957;-53
2023/12/27 10:22:20;;;;;;;2.63;0.88;;;17.90;70.00;;;;;;5108990;27;45243;-53
2023/12/27 10:24:48;;;;;;;1.00;0.75;;;17.90;69.80;;;;;;5110836;27;45366;-52
2023/12/27 10:27:15;;;;;;;1.55;0.88;;;17.90;69.90;;;;;;5111697;27;45097;-53
2023/12/27 10:29:47;;;;;;;2.90;1.05;;;17.90;69.80;;;;;;5110784;27;47764;-53
2023/12/27 10:32:16;;;;;;;2.63;1.00;;;18.00;70.00;;;;;;5110873;27;45279;-53
2023/12/27 10:34:43;;;;;;;2.03;0.80;;;18.00;69.90;;;;;;5110800;27;45102;-53
2023/12/27 10:37:13;;;;;;;2.30;0.82;;;18.00;70.00;;;;;;5110969;27;45302;-53
2023/12/27 10:39:45;;;;;;;1.15;0.60;;;18.00;69.80;;;;;;5109922;27;45268;-53
2023/12/27 10:42:16;;;;;;;1.63;0.70;;;18.00;69.70;;;;;;5109666;27;44687;-53
2023/12/27 10:44:43;;;;;;;1.10;0.55;;;18.00;69.90;;;;;;5109637;27;45260;-53
2023/12/27 10:47:12;;;;;;;1.00;0.70;;;18.00;70.10;;;;;;5108801;27;44718;-53
2023/12/27 10:49:42;;;;;;;1.65;0.75;;;17.90;70.20;;;;;;5110563;27;46528;-53
2023/12/27 10:52:10;;;;;;;1.10;0.47;;;17.90;70.50;;;;;;5108675;27;45397;-53
2023/12/27 10:54:38;;;;;;;1.15;0.60;;;17.90;70.50;;;;;;5105491;27;45267;-53
2023/12/27 10:57:09;;;;;;;2.28;0.80;;;17.90;70.70;;;;;;5103393;27;45679;-53
2023/12/27 10:59:37;;;;;;;0.90;0.60;;;17.90;70.80;;;;;;5094414;27;46202;-53
2023/12/27 11:02:06;;;;;;;1.02;0.55;;;17.90;70.70;;;;;;5106008;27;45156;-52
2023/12/27 11:04:34;;;;;;;1.08;0.57;;;17.90;70.90;;;;;;5104124;27;45210;-53
2023/12/27 11:07:03;;;;;;;0.50;0.50;;;17.90;70.80;;;;;;5104752;27;45236;-53
2023/12/27 11:09:31;;;;;;;1.80;0.73;;;17.90;70.90;;;;;;5106198;27;45270;-52
2023/12/27 11:12:01;;;;;;;0.57;0.30;;;17.90;71.20;;;;;;5101694;27;45154;-53
2023/12/27 11:14:29;;;;;;;2.60;0.70;;;17.90;72.10;;;;;;5106119;27;45249;-53
2023/12/27 11:16:58;;;;;;;1.10;0.55;;;17.90;71.90;;;;;;5107805;27;45369;-53
2023/12/27 11:19:28;;;;;;;0.93;0.50;;;18.00;71.60;;;;;;5107120;27;45451;-53
2023/12/27 11:21:55;;;;;;;1.27;0.60;;;18.00;71.50;;;;;;5108208;27;44650;-53
2023/12/27 11:24:22;;;;;;;0.73;0.60;;;18.00;71.30;;;;;;5108982;27;44634;-53
2023/12/27 11:26:59;;;;;;;3.35;0.70;;;18.00;71.40;;;;;;5109940;27;45203;-53
2023/12/27 11:29:28;;;;;;;0.95;0.60;;;18.00;71.40;;;;;;5107206;27;45409;-53
2023/12/27 11:31:57;;;;;;;1.52;0.70;;;18.00;71.20;;;;;;5101185;27;45252;-53
2023/12/27 11:34:25;;;;;;;1.35;0.60;;;18.00;71.30;;;;;;5108313;27;44668;-53
2023/12/27 11:36:52;;;;;;;0.77;0.65;;;18.00;71.50;;;;;;5108183;27;45262;-53
2023/12/27 11:39:21;;;;;;;2.05;0.82;;;18.00;71.50;;;;;;5109962;27;46080;-53
2023/12/27 11:41:49;;;;;;;1.40;0.50;;;18.00;71.40;;;;;;5108280;27;45669;-53
2023/12/27 11:44:17;;;;;;;0.82;0.60;;;18.00;71.50;;;;;;5108405;27;45117;-53
2023/12/27 11:46:44;;;;;;;2.25;0.63;;;18.00;71.50;;;;;;5108328;27;45227;-53
2023/12/27 11:49:19;;;;;;;0.57;0.50;;;18.00;71.50;;;;;;5108578;27;47661;-53
2023/12/27 11:51:47;;;;;;;5.70;0.50;;;18.00;71.40;;;;;;5108746;27;45160;-53
2023/12/27 11:54:23;;;;;;;1.30;0.63;;;18.00;71.50;;;;;;5109189;27;45265;-53
2023/12/27 11:56:51;;;;;;;1.08;0.40;;;18.00;71.40;;;;;;5108786;27;45243;-52
2023/12/27 11:59:18;;;;;;;1.27;0.50;;;18.00;71.40;;;;;;5109296;27;45229;-53
2023/12/27 12:01:45;;;;;;;1.92;0.52;;;18.00;71.40;;;;;;5108304;27;45566;-53
2023/12/27 12:04:51;;;;;;;1.17;0.50;;;18.00;71.30;;;;;;5109037;27;45550;-53
2023/12/27 12:07:54;;;;;;;0.52;0.50;;;18.00;71.40;;;;;;5108217;27;45795;-53
2023/12/27 12:10:22;;;;;;;0.70;0.43;;;18.00;72.40;;;;;;5108075;27;46998;-52
2023/12/27 12:12:51;;;;;;;0.55;0.50;;;18.00;71.50;;;;;;5104786;27;45431;-52
2023/12/27 12:15:21;;;;;;;0.70;0.40;;;18.00;71.60;;;;;;5108410;27;45143;-53
2023/12/27 12:17:49;;;;;;;0.90;0.50;;;18.00;71.40;;;;;;5109116;27;45385;-52
2023/12/27 12:20:15;;;;;;;1.27;0.52;;;18.10;71.20;;;;;;5108207;27;47240;-53
2023/12/27 12:22:45;;;;;;;0.65;0.40;;;18.10;71.10;;;;;;5108228;27;45362;-52
2023/12/27 12:25:12;;;;;;;1.00;0.30;;;18.10;71.00;;;;;;5108693;27;45299;-52
2023/12/27 12:27:42;;;;;;;3.92;0.70;;;18.10;71.00;;;;;;5108769;27;45347;-52
2023/12/27 12:30:09;;;;;;;0.57;0.40;;;18.10;70.90;;;;;;5108545;27;45453;-53
2023/12/27 12:32:39;;;;;;;2.13;0.55;;;18.10;70.90;;;;;;5107167;27;45133;-53
2023/12/27 12:35:08;;;;;;;1.30;0.50;;;18.10;71.00;;;;;;5109040;27;45630;-53
2023/12/27 12:37:35;;;;;;;0.88;0.50;;;18.00;71.00;;;;;;5109068;27;45372;-53
2023/12/27 12:40:06;;;;;;;0.95;0.40;;;18.10;71.20;;;;;;5107063;27;45430;-53
2023/12/27 12:42:34;;;;;;;0.52;0.50;;;18.00;71.20;;;;;;5107504;27;45172;-53
2023/12/27 12:45:02;;;;;;;1.45;0.55;;;18.10;71.30;;;;;;5109055;27;45336;-53
2023/12/27 12:47:29;;;;;;;0.93;0.40;;;18.00;71.20;;;;;;5107140;27;45201;-53